Weather at Miller Airport

Public forecast

Using degrees Fahrenheit for public forecast. Weather courtesy of forecast.io.

Closest aviation weather report (METAR) to Miller Airport

Closest report is Portage County Regional Airport, 16.7 nm (30.9 km) NW. Retrieved 2021/09/20 04:15 UTC (0 seconds ago):

KPOV 200415Z AUTO 09005KT 10SM CLR 16/10 A3017 RMK AO2 T01550103 PWINO

Closest aviation forecast (TAF) to Miller Airport

Closest forecast is Akron Canton Regional Airport, 18.6 nm (34.4 km) WSW. Retrieved 2021-09-20 00:42 UTC (3 hours ago):

TAF KCAK 192338Z 2000/2024 09005KT P6SM SCT250 FM200500 12005KT P6SM BKN250 FM201400 17008KT P6SM FEW045 BKN250 FM202200 14008KT P6SM SCT040 BKN120